Portada
METAR-TAF:

METAR-TAF

Aeroports :

Gènova, Itàlia

latitud: 44-25N, longitud: 008-51E, altitud: 2 m

Observació

L'informe es va fer fa 25 minuts, a les 15:50 UTC
Vent 12 kt del Est
Temperatura 14°C
Humitat 72%
Pressió 1018 hPa
Visibilitat 10 km o més
Núvols disperses a una alçada de 2200 ft

METAR: LIMJ 071550Z 10012KT 9999 SCT022 14/09 Q1018

Hora: 17:15 (16:15 UTC)

Pronòstic

L'informe es va fer fa 5 hores i 15 minuts, a les 11:00 UTC
Pronòstic vàlid del 07 a les 12 UTC al 08 a les 12 UTC
Vent 6 kt del Est/Nord-Est
Visibilitat 10 km o més
Núvols disperses a una alçada de 4000 ft

TAF: LIMJ 071100Z 0712/0812 07006KT 9999 SCT040

Observacions i pronòstics meteorològics de més de 4000 aeroports (METAR i TAF).

Les estacions disponibles són els punts grocs i vermells al mapa.

Posi el ratolí al punt desitjat per veure el nom de l'estació.

Feu clic per veure les observacions i els pronòstics meteorològics.

Per canviar el mapa: feu clic els botons verds amb una creu de color negre per apropar; al botó verd amb un guió per allunyar la imatge; o en les fletxes verdes per a mapes adjacents.


METAR-TAF: